createdAt,value
2023-04-26T00:00:00.689Z,3.17
2023-04-26T00:01:00.689Z,3
2023-04-26T00:03:00.857Z,3
2023-04-26T00:04:00.829Z,3
2023-04-26T00:05:01.041Z,3
2023-04-26T00:06:00.675Z,2.89
2023-04-26T00:07:00.703Z,2.72
2023-04-26T00:08:00.707Z,3
2023-04-26T00:09:00.688Z,3.11
2023-04-26T00:10:00.702Z,3.39
2023-04-26T00:12:00.699Z,3.11
2023-04-26T00:13:00.697Z,3.06
2023-04-26T00:14:00.692Z,3
2023-04-26T00:15:00.699Z,2.83
2023-04-26T00:16:00.744Z,3
2023-04-26T00:18:00.773Z,3.11
2023-04-26T00:20:00.694Z,2.94
2023-04-26T00:21:00.741Z,2.83
2023-04-26T00:23:00.732Z,2.67
2023-04-26T00:24:00.693Z,2.83
2023-04-26T00:25:00.702Z,2.78
2023-04-26T00:26:00.693Z,2.89
2023-04-26T00:28:00.692Z,3
2023-04-26T00:29:00.701Z,2.94
2023-04-26T00:30:00.693Z,2.72
2023-04-26T00:31:00.693Z,2.83
2023-04-26T00:32:00.767Z,2.83
2023-04-26T00:33:00.737Z,2.67
2023-04-26T00:35:00.710Z,2.83
2023-04-26T00:37:00.724Z,2.89
2023-04-26T00:39:00.697Z,2.67
2023-04-26T00:40:00.700Z,2.72
2023-04-26T00:41:00.702Z,2.83
2023-04-26T00:42:00.712Z,2.56
2023-04-26T00:43:00.692Z,2.94
2023-04-26T00:44:00.728Z,2.89
2023-04-26T00:46:00.756Z,2.94
2023-04-26T00:47:00.701Z,2.67
2023-04-26T00:48:00.764Z,2.67
2023-04-26T00:49:00.709Z,3.06
2023-04-26T00:50:00.705Z,2.56
2023-04-26T00:51:00.715Z,2.67
2023-04-26T00:53:00.812Z,2.67
2023-04-26T00:54:00.699Z,3
2023-04-26T00:55:00.697Z,3
2023-04-26T00:56:00.787Z,2.61
2023-04-26T00:57:00.706Z,2.89
2023-04-26T00:58:00.702Z,2.89
2023-04-26T00:59:00.718Z,2.72
2023-04-26T01:00:00.709Z,2.39
2023-04-26T01:01:00.747Z,2.56
2023-04-26T01:02:00.711Z,2.61
2023-04-26T01:03:00.802Z,3
2023-04-26T01:04:00.854Z,2.61
2023-04-26T01:06:00.731Z,2.83
2023-04-26T01:07:00.707Z,2.61
2023-04-26T01:09:00.739Z,3
2023-04-26T01:10:00.718Z,3
2023-04-26T01:11:00.700Z,3
2023-04-26T01:13:00.703Z,2.72
2023-04-26T01:14:00.723Z,2.72
2023-04-26T01:16:00.697Z,3.17
2023-04-26T01:17:00.730Z,2.72
2023-04-26T01:18:00.762Z,2.94
2023-04-26T01:19:00.718Z,3.11
2023-04-26T01:20:00.712Z,3
2023-04-26T01:21:02.815Z,2.89
2023-04-26T01:22:00.757Z,3
2023-04-26T01:24:00.709Z,2.72
2023-04-26T01:25:00.851Z,2.72
2023-04-26T01:27:00.714Z,2.89
2023-04-26T01:28:00.718Z,3
2023-04-26T01:29:00.705Z,2.89
2023-04-26T01:30:00.719Z,3.06
2023-04-26T01:31:00.730Z,2.61
2023-04-26T01:32:00.720Z,2.44
2023-04-26T01:34:00.742Z,2.44
2023-04-26T01:35:00.708Z,2.72
2023-04-26T01:36:00.740Z,2.89
2023-04-26T01:37:00.725Z,3.06
2023-04-26T01:38:00.698Z,2.56
2023-04-26T01:39:00.727Z,2.61
2023-04-26T01:41:00.756Z,3
2023-04-26T01:43:00.721Z,2.89
2023-04-26T01:45:00.734Z,3
2023-04-26T01:46:00.798Z,2.89
2023-04-26T01:47:00.697Z,2.72
2023-04-26T01:48:00.767Z,2.72
2023-04-26T01:49:00.727Z,3.11
2023-04-26T01:50:00.709Z,2.44
2023-04-26T01:51:00.721Z,3
2023-04-26T01:52:00.729Z,2.72
2023-04-26T01:54:00.718Z,2.72
2023-04-26T01:56:00.721Z,3
2023-04-26T01:57:00.732Z,3
2023-04-26T01:59:00.721Z,3
2023-04-26T02:00:00.738Z,2.72
2023-04-26T02:02:00.897Z,3.33
2023-04-26T02:03:00.799Z,3.11
2023-04-26T02:05:00.738Z,3
2023-04-26T02:06:00.710Z,2.89
2023-04-26T02:07:00.724Z,3.11
2023-04-26T02:09:00.723Z,2.78
2023-04-26T02:10:00.737Z,3.28
2023-04-26T02:11:00.727Z,2.94
2023-04-26T02:13:00.752Z,3.11
2023-04-26T02:14:00.711Z,3.11
2023-04-26T02:15:00.720Z,3.28
2023-04-26T02:16:00.777Z,3.28
2023-04-26T02:17:00.721Z,3
2023-04-26T02:19:00.730Z,3
2023-04-26T02:21:00.725Z,3.33
2023-04-26T02:23:00.745Z,3
2023-04-26T02:25:00.729Z,3.33
2023-04-26T02:26:00.717Z,3
2023-04-26T02:28:00.727Z,3.11
2023-04-26T02:29:00.748Z,3.11
2023-04-26T02:31:00.761Z,2.72
2023-04-26T02:32:00.741Z,3.28
2023-04-26T02:33:00.774Z,3.11
2023-04-26T02:34:00.738Z,3.17
2023-04-26T02:35:00.728Z,2.83
2023-04-26T02:36:00.723Z,3.11
2023-04-26T02:38:00.732Z,3.11
2023-04-26T02:40:00.726Z,3.11
2023-04-26T02:41:00.738Z,3.11
2023-04-26T02:42:00.734Z,3.17
2023-04-26T02:43:00.729Z,2.89
2023-04-26T02:44:00.723Z,3.33
2023-04-26T02:45:00.819Z,2.94
2023-04-26T02:46:00.736Z,3
2023-04-26T02:47:00.819Z,2.61
2023-04-26T02:48:00.747Z,3
2023-04-26T02:50:00.744Z,3.33
2023-04-26T02:52:00.753Z,3
2023-04-26T02:54:00.729Z,3.17
2023-04-26T02:55:00.731Z,3.17
2023-04-26T02:57:00.730Z,3.11
2023-04-26T02:58:00.730Z,3.11
2023-04-26T03:00:00.725Z,3.17
2023-04-26T03:01:01.760Z,3
2023-04-26T03:03:00.866Z,3.17
2023-04-26T03:05:00.732Z,3.28
2023-04-26T03:06:00.734Z,3
2023-04-26T03:07:00.726Z,2.89
2023-04-26T03:08:00.735Z,3.17
2023-04-26T03:09:00.734Z,3
2023-04-26T03:11:00.743Z,3
2023-04-26T03:12:00.734Z,2.89
2023-04-26T03:13:00.726Z,3.33
2023-04-26T03:14:00.729Z,3
2023-04-26T03:15:00.744Z,2.72
2023-04-26T03:16:00.770Z,3.17
2023-04-26T03:17:00.782Z,3.17
2023-04-26T03:19:00.734Z,3.44
2023-04-26T03:20:02.660Z,3.39
2023-04-26T03:21:00.736Z,3
2023-04-26T03:23:00.736Z,2.89
2023-04-26T03:24:00.750Z,3.28
2023-04-26T03:26:00.737Z,3.28
2023-04-26T03:27:00.747Z,3.28
2023-04-26T03:29:00.740Z,3
2023-04-26T03:30:00.753Z,3.28
2023-04-26T03:31:00.734Z,3.11
2023-04-26T03:32:00.804Z,2.89
2023-04-26T03:33:00.899Z,3.11
2023-04-26T03:34:00.731Z,3.11
2023-04-26T03:35:00.738Z,3
2023-04-26T03:36:00.760Z,3.17
2023-04-26T03:37:00.736Z,3
2023-04-26T03:38:00.746Z,3.39
2023-04-26T03:39:00.739Z,3
2023-04-26T03:40:00.751Z,3
2023-04-26T03:41:00.734Z,3.17
2023-04-26T03:43:00.757Z,3.17
2023-04-26T03:44:00.735Z,2.89
2023-04-26T03:45:00.776Z,3
2023-04-26T03:46:00.737Z,2.56
2023-04-26T03:47:00.731Z,3.17
2023-04-26T03:48:00.935Z,3
2023-04-26T03:49:00.774Z,3.17
2023-04-26T03:51:00.754Z,3
2023-04-26T03:52:00.738Z,3
2023-04-26T03:53:00.756Z,3.11
2023-04-26T03:55:00.755Z,3
2023-04-26T03:57:00.755Z,3.11
2023-04-26T03:59:00.757Z,2.78
2023-04-26T04:01:00.752Z,3.11
2023-04-26T04:02:00.759Z,2.61
2023-04-26T04:04:00.981Z,3.06
2023-04-26T04:05:00.915Z,3.11
2023-04-26T04:07:00.764Z,3.11
2023-04-26T04:08:00.740Z,2.89
2023-04-26T04:09:00.739Z,3.28
2023-04-26T04:10:00.777Z,3.28
2023-04-26T04:12:00.748Z,3.28
2023-04-26T04:14:00.744Z,3
2023-04-26T04:15:00.752Z,3.06
2023-04-26T04:16:00.792Z,3.17
2023-04-26T04:17:00.762Z,3
2023-04-26T04:19:00.743Z,2.94
2023-04-26T04:20:00.727Z,3.17
2023-04-26T04:21:00.771Z,3.11
2023-04-26T04:22:00.739Z,3.11
2023-04-26T04:23:00.746Z,2.89
2023-04-26T04:25:00.748Z,3
2023-04-26T04:26:00.749Z,2.83
2023-04-26T04:27:00.740Z,3.11
2023-04-26T04:28:00.748Z,3.28
2023-04-26T04:30:00.743Z,3.33
2023-04-26T04:31:00.774Z,3
2023-04-26T04:32:00.748Z,3.28
2023-04-26T04:33:00.753Z,3.28
2023-04-26T04:34:00.763Z,3.28
2023-04-26T04:36:00.746Z,3.33
2023-04-26T04:37:00.797Z,3.17
2023-04-26T04:39:00.745Z,3.39
2023-04-26T04:40:00.762Z,3.44
2023-04-26T04:41:00.739Z,3.28
2023-04-26T04:42:00.744Z,3.28
2023-04-26T04:44:00.755Z,3.33
2023-04-26T04:46:00.784Z,3.56
2023-04-26T04:47:00.818Z,3.5
2023-04-26T04:49:00.748Z,3.17
2023-04-26T04:50:00.744Z,3.33
2023-04-26T04:51:00.746Z,3.61
2023-04-26T04:52:00.758Z,3.17
2023-04-26T04:53:00.786Z,3.33
2023-04-26T04:55:00.759Z,3.5
2023-04-26T04:56:00.742Z,2.94
2023-04-26T04:57:00.743Z,3.44
2023-04-26T04:58:00.758Z,3.44
2023-04-26T04:59:00.778Z,3.44
2023-04-26T05:01:00.766Z,3.5
2023-04-26T05:02:00.822Z,3.44
2023-04-26T05:04:00.943Z,3.5
2023-04-26T05:05:00.858Z,3.33
2023-04-26T05:07:00.750Z,3.44
2023-04-26T05:08:00.745Z,3.5
2023-04-26T05:09:00.796Z,3.5
2023-04-26T05:10:00.753Z,3.44
2023-04-26T05:11:00.758Z,3.39
2023-04-26T05:12:00.757Z,3
2023-04-26T05:13:00.766Z,3.28
2023-04-26T05:15:00.759Z,3.33
2023-04-26T05:16:00.793Z,3.28
2023-04-26T05:18:00.786Z,3.17
2023-04-26T05:19:00.770Z,3.39
2023-04-26T05:20:00.749Z,3.33
2023-04-26T05:21:00.766Z,3.72
2023-04-26T05:22:00.771Z,3.17
2023-04-26T05:23:00.759Z,3.5
2023-04-26T05:24:00.755Z,3.5
2023-04-26T05:25:00.787Z,3.33
2023-04-26T05:26:00.754Z,3.17
2023-04-26T05:27:00.768Z,3
2023-04-26T05:28:00.756Z,3.39
2023-04-26T05:29:00.760Z,3.11
2023-04-26T05:31:00.774Z,3
2023-04-26T05:33:00.800Z,2.83
2023-04-26T05:34:00.771Z,3.17
2023-04-26T05:35:00.755Z,3.39
2023-04-26T05:36:00.759Z,3
2023-04-26T05:37:00.757Z,3.28
2023-04-26T05:38:00.772Z,2.94
2023-04-26T05:39:00.785Z,2.94
2023-04-26T05:40:00.768Z,3
2023-04-26T05:41:00.785Z,3
2023-04-26T05:43:00.786Z,3.33
2023-04-26T05:44:00.762Z,3.17
2023-04-26T05:45:00.772Z,3
2023-04-26T05:46:00.844Z,3.17
2023-04-26T05:47:00.778Z,3.28
2023-04-26T05:50:00.758Z,3.28
2023-04-26T05:51:00.783Z,3
2023-04-26T05:52:00.790Z,2.72
2023-04-26T05:53:00.752Z,3.33
2023-04-26T05:54:00.777Z,2.89
2023-04-26T05:55:00.772Z,3.17
2023-04-26T05:57:00.800Z,3.17
2023-04-26T05:59:00.769Z,2.94
2023-04-26T06:00:00.763Z,3.11
2023-04-26T06:01:00.769Z,3.11
2023-04-26T06:02:00.792Z,3.06
2023-04-26T06:03:00.907Z,3.17
2023-04-26T06:04:01.464Z,3.17
2023-04-26T06:05:00.983Z,3.39
2023-04-26T06:06:00.857Z,3
2023-04-26T06:07:00.765Z,3.11
2023-04-26T06:09:00.758Z,2.94
2023-04-26T06:11:00.772Z,3.11
2023-04-26T06:12:00.756Z,3.17
2023-04-26T06:13:00.824Z,3.11
2023-04-26T06:14:00.764Z,3.17
2023-04-26T06:15:00.773Z,3
2023-04-26T06:16:00.768Z,3.28
2023-04-26T06:18:00.814Z,3.11
2023-04-26T06:20:00.768Z,3.17
2023-04-26T06:21:00.756Z,3.17
2023-04-26T06:22:00.763Z,3.28
2023-04-26T06:23:00.780Z,3.33
2023-04-26T06:25:00.762Z,3.11
2023-04-26T06:26:00.770Z,3.17
2023-04-26T06:28:00.771Z,3.28
2023-04-26T06:29:00.801Z,3.33
2023-04-26T06:30:00.752Z,3.17
2023-04-26T06:31:00.785Z,3.39
2023-04-26T06:32:00.755Z,2.83
2023-04-26T06:33:00.827Z,3.39
2023-04-26T06:34:00.773Z,3.17
2023-04-26T06:36:00.794Z,3.39
2023-04-26T06:38:00.760Z,3.28
2023-04-26T06:40:00.769Z,3.17
2023-04-26T06:41:00.754Z,3.17
2023-04-26T06:42:00.758Z,3.17
2023-04-26T06:43:00.759Z,3.33
2023-04-26T06:44:00.762Z,3.33
2023-04-26T06:45:00.801Z,3.33
2023-04-26T06:47:00.768Z,3.44
2023-04-26T06:48:00.856Z,3.33
2023-04-26T06:49:00.762Z,3.33
2023-04-26T06:50:00.798Z,3.39
2023-04-26T06:51:00.778Z,3.33
2023-04-26T06:52:00.766Z,3.33
2023-04-26T06:53:00.792Z,3.44
2023-04-26T06:55:00.784Z,3.78
2023-04-26T06:56:00.774Z,3.56
2023-04-26T06:58:00.785Z,3.61
2023-04-26T07:00:00.772Z,3.61
2023-04-26T07:01:00.864Z,3.5
2023-04-26T07:02:00.853Z,3.44
2023-04-26T07:03:00.850Z,3.44
2023-04-26T07:04:00.830Z,3.56
2023-04-26T07:05:00.866Z,3.39
2023-04-26T07:06:00.771Z,3.61
2023-04-26T07:07:00.848Z,3.17
2023-04-26T07:08:00.785Z,3.28
2023-04-26T07:09:01.425Z,3.11
2023-04-26T07:10:00.767Z,3.11
2023-04-26T07:11:00.797Z,3.28
2023-04-26T07:12:00.774Z,3.11
2023-04-26T07:13:00.797Z,3.11
2023-04-26T07:14:00.811Z,3.28
2023-04-26T07:15:00.771Z,3.28
2023-04-26T07:16:00.845Z,3.17
2023-04-26T07:17:00.891Z,3.06
2023-04-26T07:18:00.793Z,3.28
2023-04-26T07:19:00.871Z,3.28
2023-04-26T07:20:00.782Z,3.28
2023-04-26T07:21:00.771Z,3.17
2023-04-26T07:22:00.787Z,3.28
2023-04-26T07:23:00.772Z,3.17
2023-04-26T07:24:00.769Z,3.39
2023-04-26T07:25:00.768Z,3.28
2023-04-26T07:26:00.783Z,3.28
2023-04-26T07:27:00.771Z,3.11
2023-04-26T07:28:00.805Z,3.11
2023-04-26T07:29:00.810Z,2.78
2023-04-26T07:30:00.832Z,3.11
2023-04-26T07:31:00.783Z,2.83
2023-04-26T07:33:00.882Z,3.28
2023-04-26T07:35:00.787Z,3.28
2023-04-26T07:36:00.778Z,3.39
2023-04-26T07:37:00.784Z,3.39
2023-04-26T07:38:00.807Z,3.28
2023-04-26T07:40:00.775Z,3.39
2023-04-26T07:41:00.871Z,3.33
2023-04-26T07:42:00.780Z,3.44
2023-04-26T07:43:00.797Z,3.5
2023-04-26T07:44:00.773Z,3.61
2023-04-26T07:45:00.785Z,3.61
2023-04-26T07:47:00.796Z,3.5
2023-04-26T07:48:00.786Z,3.44
2023-04-26T07:49:00.803Z,3.61
2023-04-26T07:51:00.775Z,3.44
2023-04-26T07:52:00.795Z,3.56
2023-04-26T07:53:00.792Z,4
2023-04-26T07:55:00.789Z,3.56
2023-04-26T07:56:00.774Z,3.56
2023-04-26T07:57:00.809Z,4
2023-04-26T07:58:00.783Z,4.44
2023-04-26T07:59:00.781Z,4.72
2023-04-26T08:00:00.779Z,4.72
2023-04-26T08:01:00.780Z,4.94
2023-04-26T08:03:01.004Z,4.72
2023-04-26T08:04:01.519Z,4.5
2023-04-26T08:05:01.221Z,5.17
2023-04-26T08:07:00.784Z,5.33
2023-04-26T08:08:00.801Z,5.72
2023-04-26T08:09:00.809Z,5.83
2023-04-26T08:11:00.787Z,6
2023-04-26T08:12:00.804Z,6.28
2023-04-26T08:13:00.795Z,6.56
2023-04-26T08:14:00.779Z,7
2023-04-26T08:15:00.776Z,7.28
2023-04-26T08:16:00.791Z,6.39
2023-04-26T08:17:00.812Z,6.39
2023-04-26T08:18:00.797Z,6.56
2023-04-26T08:20:00.788Z,6.83
2023-04-26T08:21:00.861Z,7.28
2023-04-26T08:23:00.776Z,7
2023-04-26T08:24:00.788Z,7.28
2023-04-26T08:25:00.773Z,7.28
2023-04-26T08:26:00.810Z,7.61
2023-04-26T08:28:00.791Z,7.61
2023-04-26T08:30:00.779Z,8.61
2023-04-26T08:31:00.834Z,8.61
2023-04-26T08:32:00.787Z,8.67
2023-04-26T08:33:00.807Z,9.17
2023-04-26T08:35:00.796Z,8.44
2023-04-26T08:36:00.791Z,8.61
2023-04-26T08:37:00.901Z,8.61
2023-04-26T08:38:00.786Z,8.61
2023-04-26T08:39:00.809Z,8.17
2023-04-26T08:40:00.808Z,8
2023-04-26T08:41:00.781Z,7.72
2023-04-26T08:42:00.793Z,7.61
2023-04-26T08:43:00.780Z,7.28
2023-04-26T08:44:00.793Z,7.67
2023-04-26T08:45:00.794Z,7.61
2023-04-26T08:46:00.852Z,7.72
2023-04-26T08:48:02.582Z,7.17
2023-04-26T08:49:00.792Z,7.39
2023-04-26T08:51:00.812Z,7.78
2023-04-26T08:53:00.912Z,7.72
2023-04-26T08:55:00.794Z,7.94
2023-04-26T08:56:00.782Z,7.94
2023-04-26T08:57:00.786Z,8.28
2023-04-26T08:58:00.793Z,8.5
2023-04-26T08:59:00.781Z,8.39
2023-04-26T09:00:00.783Z,8.39
2023-04-26T09:01:00.793Z,8.5
2023-04-26T09:02:00.847Z,8.61
2023-04-26T09:03:00.898Z,8.61
2023-04-26T09:04:00.951Z,8.78
2023-04-26T09:06:02.022Z,9.22
2023-04-26T09:07:00.800Z,9.5
2023-04-26T09:08:00.794Z,10.11
2023-04-26T09:09:00.826Z,9.67
2023-04-26T09:11:00.788Z,9.06
2023-04-26T09:12:00.809Z,8.94
2023-04-26T09:14:00.804Z,8.78
2023-04-26T09:16:02.662Z,8.5
2023-04-26T09:18:00.821Z,9.5
2023-04-26T09:19:00.806Z,9.22
2023-04-26T09:20:00.785Z,9.67
2023-04-26T09:21:00.799Z,9.67
2023-04-26T09:23:00.788Z,9.22
2023-04-26T09:24:00.812Z,9.06
2023-04-26T09:25:00.846Z,8.5
2023-04-26T09:26:00.795Z,9.06
2023-04-26T09:27:00.800Z,8.78
2023-04-26T09:28:00.810Z,8.78
2023-04-26T09:30:00.790Z,7.94
2023-04-26T09:32:00.820Z,8.28
2023-04-26T09:33:00.806Z,7.94
2023-04-26T09:34:00.797Z,8.78
2023-04-26T09:35:00.789Z,8.94
2023-04-26T09:36:00.787Z,9.06
2023-04-26T09:37:00.824Z,9.22
2023-04-26T09:39:00.796Z,8.39
2023-04-26T09:40:00.801Z,8.61
2023-04-26T09:41:00.836Z,8.61
2023-04-26T09:43:00.804Z,8.5
2023-04-26T09:44:00.805Z,8.78
2023-04-26T09:45:00.796Z,8.78
2023-04-26T09:47:00.817Z,8.94
2023-04-26T09:48:00.842Z,8.78
2023-04-26T09:49:00.788Z,8.94
2023-04-26T09:50:00.804Z,8.78
2023-04-26T09:52:00.806Z,8.78
2023-04-26T09:53:00.795Z,9.22
2023-04-26T09:54:00.813Z,9.78
2023-04-26T09:56:00.814Z,10.39
2023-04-26T09:57:00.969Z,9.67
2023-04-26T09:59:00.810Z,10.83
2023-04-26T10:00:00.801Z,11.44
2023-04-26T10:02:00.833Z,10.83
2023-04-26T10:04:00.934Z,9.67
2023-04-26T10:05:00.825Z,9.67
2023-04-26T10:07:00.788Z,9.5
2023-04-26T10:08:00.800Z,9.67
2023-04-26T10:10:00.807Z,9.22
2023-04-26T10:12:00.804Z,9.39
2023-04-26T10:13:00.852Z,10.11
2023-04-26T10:14:00.785Z,9.22
2023-04-26T10:15:00.798Z,10.39
2023-04-26T10:16:00.832Z,9.94
2023-04-26T10:17:00.812Z,9.06
2023-04-26T10:18:00.919Z,9.22
2023-04-26T10:19:00.849Z,10.11
2023-04-26T10:20:00.800Z,10.39
2023-04-26T10:21:00.802Z,10.22
2023-04-26T10:22:00.793Z,9.5
2023-04-26T10:24:00.821Z,10.67
2023-04-26T10:26:00.800Z,10.39
2023-04-26T10:28:00.794Z,10.56
2023-04-26T10:29:02.798Z,10.56
2023-04-26T10:31:00.798Z,10.83
2023-04-26T10:32:00.873Z,10.56
2023-04-26T10:33:00.849Z,10.83
2023-04-26T10:35:00.810Z,11
2023-04-26T10:36:00.812Z,11
2023-04-26T10:37:00.826Z,10.11
2023-04-26T10:38:00.828Z,11.28
2023-04-26T10:40:00.797Z,11.28
2023-04-26T10:41:00.816Z,11.44
2023-04-26T10:42:00.803Z,11.28
2023-04-26T10:44:00.801Z,11.94
2023-04-26T10:45:00.841Z,11.61
2023-04-26T10:47:00.803Z,10.83
2023-04-26T10:49:00.801Z,11.11
2023-04-26T10:50:01.194Z,11.83
2023-04-26T10:52:00.817Z,12.72
2023-04-26T10:53:01.846Z,12.28
2023-04-26T10:55:00.804Z,12.89
2023-04-26T10:56:00.804Z,12.5
2023-04-26T10:58:00.798Z,11.17
2023-04-26T10:59:00.797Z,11.06
2023-04-26T11:00:00.811Z,11.61
2023-04-26T11:01:00.860Z,11.5
2023-04-26T11:03:00.848Z,12
2023-04-26T11:04:01.094Z,12.5
2023-04-26T11:05:00.937Z,12.94
2023-04-26T11:06:00.801Z,11.78
2023-04-26T11:07:00.799Z,11.61
2023-04-26T11:08:00.815Z,11.17
2023-04-26T11:09:00.813Z,11.61
2023-04-26T11:10:00.810Z,12
2023-04-26T11:11:00.816Z,12
2023-04-26T11:12:00.825Z,11.61
2023-04-26T11:13:00.800Z,11.61
2023-04-26T11:14:00.842Z,11.61
2023-04-26T11:15:00.809Z,11.61
2023-04-26T11:16:00.822Z,11.33
2023-04-26T11:17:00.845Z,10.33
2023-04-26T11:19:00.803Z,10
2023-04-26T11:20:00.812Z,10.89
2023-04-26T11:21:00.813Z,10.61
2023-04-26T11:22:00.818Z,11.06
2023-04-26T11:23:00.824Z,11.17
2023-04-26T11:24:00.838Z,11.06
2023-04-26T11:27:00.826Z,11.17
2023-04-26T11:28:00.804Z,11.17
2023-04-26T11:29:00.814Z,11.06
2023-04-26T11:30:00.811Z,11.17
2023-04-26T11:31:00.854Z,11.61
2023-04-26T11:32:00.815Z,10.61
2023-04-26T11:33:00.901Z,11.5
2023-04-26T11:35:00.815Z,11.17
2023-04-26T11:36:00.813Z,11.06
2023-04-26T11:37:00.824Z,11.06
2023-04-26T11:39:00.835Z,9.89
2023-04-26T11:40:00.830Z,9.44
2023-04-26T11:41:00.832Z,10.33
2023-04-26T11:42:00.829Z,10.33
2023-04-26T11:44:00.866Z,9.44
2023-04-26T11:45:00.815Z,9.28
2023-04-26T11:46:00.823Z,9.28
2023-04-26T11:47:00.882Z,10.44
2023-04-26T11:49:00.973Z,9.89
2023-04-26T11:51:00.825Z,10
2023-04-26T11:52:00.828Z,10
2023-04-26T11:54:00.828Z,10.33
2023-04-26T11:55:00.836Z,9.89
2023-04-26T11:56:00.833Z,9.89
2023-04-26T11:58:00.827Z,9.89
2023-04-26T11:59:00.823Z,9.89
2023-04-26T12:00:00.822Z,10.33
2023-04-26T12:01:00.824Z,10.72
2023-04-26T12:02:00.854Z,11.17
2023-04-26T12:03:00.934Z,11.06
2023-04-26T12:05:00.999Z,11.78
2023-04-26T12:07:00.833Z,12.5
2023-04-26T12:08:00.837Z,12
2023-04-26T12:09:00.847Z,12.17
2023-04-26T12:11:00.824Z,11.89
2023-04-26T12:12:00.831Z,12.17
2023-04-26T12:13:00.819Z,12.61
2023-04-26T12:14:00.880Z,12.61
2023-04-26T12:15:00.827Z,12
2023-04-26T12:17:00.846Z,12
2023-04-26T12:18:00.878Z,11.61
2023-04-26T12:20:00.834Z,12.33
2023-04-26T12:21:00.939Z,12.78
2023-04-26T12:23:00.821Z,12.5
2023-04-26T12:24:00.845Z,13.56
2023-04-26T12:25:00.825Z,13.39
2023-04-26T12:26:00.825Z,12.5
2023-04-26T12:27:02.489Z,11.89
2023-04-26T12:28:00.844Z,11.78
2023-04-26T12:30:00.829Z,11.61
2023-04-26T12:31:00.818Z,11.5
2023-04-26T12:32:00.954Z,11.89
2023-04-26T12:33:15.345Z,11.72
2023-04-26T12:34:00.823Z,12.33
2023-04-26T12:36:00.836Z,11.78
2023-04-26T12:37:00.845Z,11.89
2023-04-26T12:39:00.835Z,12.11
2023-04-26T12:40:00.833Z,11.94
2023-04-26T12:42:00.821Z,11.67
2023-04-26T12:43:00.832Z,11.67
2023-04-26T12:45:00.824Z,11.83
2023-04-26T12:46:00.904Z,12.39
2023-04-26T12:47:00.825Z,12.22
2023-04-26T12:49:00.827Z,12.22
2023-04-26T12:51:00.829Z,11.67
2023-04-26T12:52:00.820Z,11.39
2023-04-26T12:53:00.869Z,11.83
2023-04-26T12:55:00.825Z,12.22
2023-04-26T12:57:00.840Z,13.17
2023-04-26T12:58:00.893Z,13.83
2023-04-26T12:59:00.843Z,13.67
2023-04-26T13:00:00.832Z,12.83
2023-04-26T13:02:00.851Z,12.11
2023-04-26T13:04:01.064Z,12.83
2023-04-26T13:05:00.854Z,12.67
2023-04-26T13:06:00.845Z,12.67
2023-04-26T13:07:00.821Z,13
2023-04-26T13:08:00.829Z,13.44
2023-04-26T13:09:00.881Z,12.56
2023-04-26T13:11:00.843Z,12.22
2023-04-26T13:12:00.820Z,12.56
2023-04-26T13:13:00.830Z,12.83
2023-04-26T13:15:00.839Z,13.28
2023-04-26T13:16:00.857Z,12.67
2023-04-26T13:18:00.848Z,13
2023-04-26T13:19:00.853Z,12.67
2023-04-26T13:20:00.846Z,13.17
2023-04-26T13:21:00.838Z,13.17
2023-04-26T13:22:00.838Z,13.17
2023-04-26T13:23:00.831Z,12.22
2023-04-26T13:24:00.829Z,12.11
2023-04-26T13:25:00.873Z,12.22
2023-04-26T13:27:00.846Z,13.44
2023-04-26T13:28:00.843Z,12.67
2023-04-26T13:29:00.836Z,12.67
2023-04-26T13:30:00.828Z,12.56
2023-04-26T13:31:00.862Z,13.17
2023-04-26T13:32:00.830Z,14.06
2023-04-26T13:33:00.846Z,13.17
2023-04-26T13:34:00.838Z,13.17
2023-04-26T13:35:00.846Z,13
2023-04-26T13:36:00.842Z,13.56
2023-04-26T13:37:00.850Z,13.56
2023-04-26T13:38:00.843Z,14.33
2023-04-26T13:39:00.845Z,14.5
2023-04-26T13:41:00.860Z,12.83
2023-04-26T13:43:00.842Z,13.17
2023-04-26T13:45:00.852Z,13.17
2023-04-26T13:47:00.833Z,12.83
2023-04-26T13:48:00.862Z,12.67
2023-04-26T13:49:00.830Z,12.22
2023-04-26T13:50:00.841Z,11.94
2023-04-26T13:51:00.841Z,12.56
2023-04-26T13:52:00.858Z,12.67
2023-04-26T13:54:00.832Z,12.67
2023-04-26T13:56:00.841Z,12.22
2023-04-26T13:57:00.866Z,11.83
2023-04-26T13:58:00.851Z,12.11
2023-04-26T13:59:00.837Z,11.67
2023-04-26T14:01:00.854Z,11.83
2023-04-26T14:03:00.931Z,11.94
2023-04-26T14:04:00.997Z,11.83
2023-04-26T14:05:00.922Z,12.11
2023-04-26T14:06:00.843Z,12.11
2023-04-26T14:07:00.826Z,12.39
2023-04-26T14:08:00.845Z,12.22
2023-04-26T14:09:00.845Z,12.22
2023-04-26T14:10:00.828Z,12.39
2023-04-26T14:11:00.837Z,12.22
2023-04-26T14:12:08.278Z,12.67
2023-04-26T14:13:00.853Z,12.22
2023-04-26T14:15:00.840Z,12.11
2023-04-26T14:16:00.887Z,13.17
2023-04-26T14:18:00.906Z,12.22
2023-04-26T14:19:00.857Z,11.94
2023-04-26T14:21:00.847Z,12.67
2023-04-26T14:22:00.850Z,12.39
2023-04-26T14:23:00.841Z,12.67
2023-04-26T14:24:00.844Z,12.22
2023-04-26T14:25:00.854Z,12.67
2023-04-26T14:26:00.855Z,12.83
2023-04-26T14:27:00.858Z,12.39
2023-04-26T14:29:00.899Z,12.22
2023-04-26T14:31:00.864Z,12.83
2023-04-26T14:32:00.880Z,12.11
2023-04-26T14:33:00.866Z,12.22
2023-04-26T14:34:00.840Z,12.39
2023-04-26T14:36:00.852Z,12.11
2023-04-26T14:38:00.836Z,12.39
2023-04-26T14:39:00.898Z,12.67
2023-04-26T14:40:00.849Z,12.11
2023-04-26T14:41:00.874Z,12.22
2023-04-26T14:42:00.867Z,12.22
2023-04-26T14:44:00.839Z,13.89
2023-04-26T14:45:00.907Z,13.56
2023-04-26T14:47:00.843Z,13.56
2023-04-26T14:48:00.917Z,13.44
2023-04-26T14:49:00.859Z,12.83
2023-04-26T14:50:00.852Z,11.83
2023-04-26T14:52:00.850Z,11.11
2023-04-26T14:54:00.860Z,11.67
2023-04-26T14:56:00.856Z,11.83
2023-04-26T14:57:00.856Z,11.22
2023-04-26T14:58:00.854Z,11.56
2023-04-26T14:59:00.839Z,11.39
2023-04-26T15:00:00.858Z,11.94
2023-04-26T15:01:00.897Z,12.22
2023-04-26T15:03:00.988Z,12.22
2023-04-26T15:04:01.623Z,12.22
2023-04-26T15:05:00.860Z,12.39
2023-04-26T15:06:00.854Z,13
2023-04-26T15:07:00.846Z,13.72
2023-04-26T15:08:00.852Z,13.44
2023-04-26T15:10:00.864Z,13
2023-04-26T15:11:00.856Z,13.44
2023-04-26T15:13:00.857Z,13.28
2023-04-26T15:15:00.848Z,14.5
2023-04-26T15:16:01.044Z,14.06
2023-04-26T15:17:01.010Z,15.22
2023-04-26T15:19:00.851Z,14.06
2023-04-26T15:20:00.880Z,14.06
2023-04-26T15:22:00.854Z,13.72
2023-04-26T15:23:00.859Z,14.61
2023-04-26T15:25:00.846Z,13.89
2023-04-26T15:26:00.857Z,14.94
2023-04-26T15:28:00.859Z,15.33
2023-04-26T15:29:00.846Z,14.61
2023-04-26T15:30:00.848Z,14.83
2023-04-26T15:31:00.876Z,13.89
2023-04-26T15:32:00.912Z,14.94
2023-04-26T15:33:00.903Z,15.11
2023-04-26T15:34:00.889Z,15.67
2023-04-26T15:36:00.860Z,15.33
2023-04-26T15:38:00.858Z,15.83
2023-04-26T15:39:00.858Z,15.78
2023-04-26T15:40:00.856Z,15.83
2023-04-26T15:42:00.863Z,15.83
2023-04-26T15:43:00.852Z,15.5
2023-04-26T15:44:00.856Z,15.5
2023-04-26T15:45:00.845Z,15.33
2023-04-26T15:46:00.865Z,15.89
2023-04-26T15:47:00.860Z,15.5
2023-04-26T15:49:00.866Z,15.28
2023-04-26T15:51:00.862Z,15.78
2023-04-26T15:52:00.844Z,15.33
2023-04-26T15:53:00.867Z,15.44
2023-04-26T15:54:00.863Z,15.61
2023-04-26T15:55:00.859Z,15.33
2023-04-26T15:56:00.856Z,15.22
2023-04-26T15:58:00.864Z,15.78
2023-04-26T16:00:00.863Z,15.22
2023-04-26T16:01:00.850Z,14.5
2023-04-26T16:02:00.897Z,14.33
2023-04-26T16:04:00.990Z,13.72
2023-04-26T16:05:01.073Z,13.17
2023-04-26T16:06:00.856Z,12.67
2023-04-26T16:07:00.864Z,12.22
2023-04-26T16:09:01.285Z,12.22
2023-04-26T16:10:00.865Z,12.11
2023-04-26T16:11:00.880Z,11.83
2023-04-26T16:13:00.858Z,11.67
2023-04-26T16:14:00.874Z,12.11
2023-04-26T16:16:00.939Z,13.56
2023-04-26T16:17:00.875Z,13.28
2023-04-26T16:18:00.954Z,13.56
2023-04-26T16:19:00.876Z,13.28
2023-04-26T16:20:00.878Z,13
2023-04-26T16:21:00.894Z,12.11
2023-04-26T16:22:00.902Z,12.22
2023-04-26T16:23:00.854Z,12.11
2023-04-26T16:24:00.875Z,11.83
2023-04-26T16:25:00.864Z,12.11
2023-04-26T16:27:00.882Z,13.17
2023-04-26T16:28:00.866Z,13.17
2023-04-26T16:29:00.858Z,13.17
2023-04-26T16:30:01.051Z,12.83
2023-04-26T16:31:01.071Z,11.83
2023-04-26T16:32:01.062Z,12.22
2023-04-26T16:33:00.869Z,11.94
2023-04-26T16:34:00.862Z,11.83
2023-04-26T16:35:00.871Z,11.56
2023-04-26T16:36:00.858Z,11.22
2023-04-26T16:37:00.898Z,11.56
2023-04-26T16:39:00.863Z,11.94
2023-04-26T16:40:00.923Z,11.67
2023-04-26T16:41:00.873Z,11.39
2023-04-26T16:42:00.887Z,11.39
2023-04-26T16:44:00.981Z,11.11
2023-04-26T16:45:00.876Z,10.94
2023-04-26T16:46:00.942Z,10.94
2023-04-26T16:47:00.968Z,10.78
2023-04-26T16:49:00.874Z,10.78
2023-04-26T16:50:00.967Z,10.94
2023-04-26T16:51:00.967Z,10.94
2023-04-26T16:52:00.883Z,10.5
2023-04-26T16:53:01.535Z,10.5